Allerton, Iowa
Current Conditions -  °F | °C
As of 2:55 AM on Wednesday 26 Nov 2014 (Local Time) from KCNC Reporting Station
Unknown Precip Unknown Precip  
Wind Chill: 22°   Ceiling: 2900
Heat Index: 32°   Visibility: 7mi
Dew Point: 21°   Wind: 15mph
Humidity: 64%   Direction: 180°S
Pressure: 29.95"   Gusts: NA
Location:  40.71°N, 93.37°W
Report Text: KCNC 260855Z AUTO 18013KT 7SM -UP FEW015 SCT025 BKN029 00/M06 A2995 RMK AO2
Loading
Personal Weather Stations






























Interactive Weather Map New forecast layout! Learn more

10-Day Weather Forecast

Advertisements
Track Severe Weather on mobile